8°C
Gosport, Hampshire, United Kingdom
Language:  English
Updated09/12/2019 07:40:00 
 

Nearby METAR Reports

 

EGHI - Southampton Wx Centre, United Kingdom
Distance from station: NW 15mi, 24km
Updated: 09-Dec-2019 07:20:00
Nearby showers, Partly cloudy
Nearby showers, Partly cloudy
 Wind from NW
Wind: NW 12 mph , 19 km/h
Temperature: 9°C
Wind Chill: 6°C
Dew Point: 5°C
Humidity: 76%
Barometer: 1004 hPa
Summary: Nearby Showers
Clouds: Partly cloudy
Visibility: 6 miles , 10 km
Cloud details: Partly cloudy 914 m
2019/12/09 07:20 EGHI 090720Z 31010KT 270V340 9999 VCSH SCT030 09/05 Q1004
EGHH - Bournemouth Airport, United Kingdom
Distance from station: W 30mi, 49km
Updated: 09-Dec-2019 07:20:00
Few Clouds
Few Clouds
 Wind from WNW
Wind: WNW 18 mph , 30 km/h, Gust: 30 mph , 48 km/h
Temperature: 9°C
Wind Chill: 5°C
Dew Point: 4°C
Humidity: 71%
Barometer: 1005 hPa
Clouds: Few Clouds
Visibility: 6 miles , 10 km
Cloud details: Few Clouds 914 m
2019/12/09 07:20 EGHH 090720Z 30016G26KT 9999 FEW030 09/04 Q1005
EGVP - Middle Wallop Airfield, United Kingdom
Distance from station: NW 31mi, 49km
Updated: 09-Dec-2019 06:50:00
Mostly cloudy
Mostly cloudy
 Wind from NNW
Wind: NNW 14 mph , 22 km/h
Temperature: 8°C
Wind Chill: 4°C
Dew Point: 5°C
Humidity: 82%
Barometer: 1002 hPa
Clouds: Mostly cloudy
Visibility: 6 miles , 10 km
Cloud details: Mostly cloudy 1158 m
2019/12/09 06:50 EGVP 090650Z 33012KT 9999 BKN038 08/05 Q1002 RMK BLU
 
EGVO - RAF Odiham, United Kingdom
Distance from station: NNE 32mi, 52km
Updated: 09-Dec-2019 07:22:00
Mostly cloudy
Mostly cloudy
 Wind from WNW
Wind: WNW 20 mph , 31 km/h, Gust: 31 mph , 50 km/h
Temperature: 8°C
Wind Chill: 3°C
Dew Point: 4°C
Humidity: 76%
Barometer: 1002 hPa
Clouds: Mostly cloudy
Visibility: 6 miles , 10 km
Cloud details: Mostly cloudy 914 m
2019/12/09 07:22 EGVO 090722Z 30017G27KT 9999 BKN030 08/04 Q1002 NOSIG RMK BLU BLU
EGKA - Shoreham Airport, United Kingdom
Distance from station: E 37mi, 59km
Updated: 08-Dec-2019 18:50:00
NOT Current
Clear
Clear
 Wind from WSW
Wind: WSW 23 mph , 37 km/h, Gust: 35 mph , 56 km/h
Temperature: 9°C
Wind Chill: 4°C
Dew Point: 4°C
Humidity: 71%
Barometer: 999 hPa
Summary: Clear
Visibility: greater than 7 miles , 10 km
2019/12/08 18:50 EGKA 081850Z 25020G30KT CAVOK 09/04 Q0999
EGDM - Boscombe Down, United Kingdom
Distance from station: NW 38mi, 61km
Updated: 09-Dec-2019 06:50:00
Mostly cloudy
Mostly cloudy
 Wind from NW
Wind: NW 23 mph , 37 km/h
Temperature: 8°C
Wind Chill: 3°C
Dew Point: 4°C
Humidity: 76%
Barometer: 1002 hPa
Clouds: Mostly cloudy
Visibility: 6 miles , 10 km
Cloud details: Mostly cloudy 1219 m
2019/12/09 06:50 EGDM 090650Z 31020KT 9999 BKN040 08/04 Q1002 RMK BLU
 
EGLF - Farnborough, United Kingdom
Distance from station: NNE 38mi, 61km
Updated: 09-Dec-2019 07:20:00
Partly cloudy
Partly cloudy
 Wind from NW
Wind: NW 21 mph , 33 km/h, Gust: 38 mph , 61 km/h
Temperature: 9°C
Wind Chill: 5°C
Dew Point: 3°C
Humidity: 66%
Barometer: 1002 hPa
Clouds: Partly cloudy
Visibility: 6 miles , 10 km
Cloud details: Partly cloudy 1067 m
Partly cloudy 1280 m
2019/12/09 07:20 EGLF 090720Z 32018G33KT 9999 SCT035 SCT042 09/03 Q1002
EGKK - Gatwick Airport, United Kingdom
Distance from station: ENE 49mi, 78km
Updated: 09-Dec-2019 07:20:00
Partly cloudy
Partly cloudy
 Wind from NW
Wind: NW 17 mph , 28 km/h, Gust: 30 mph , 48 km/h
Temperature: 8°C
Wind Chill: 4°C
Dew Point: 5°C
Humidity: 82%
Barometer: 1000 hPa
Clouds: Partly cloudy
Visibility: 6 miles , 10 km
Cloud details: Few Clouds 823 m
Partly cloudy 945 m
2019/12/09 07:20 EGKK 090720Z 32015G26KT 9999 FEW027 SCT031 08/05 Q1000
EGLL - Heathrow Airport, United Kingdom
Distance from station: NNE 57mi, 91km
Updated: 09-Dec-2019 07:20:00
Mostly cloudy
Mostly cloudy
 Wind from NW
Wind: NW 16 mph , 26 km/h
Temperature: 9°C
Wind Chill: 6°C
Dew Point: 4°C
Humidity: 71%
Barometer: 1001 hPa
Clouds: Mostly cloudy
Visibility: 6 miles , 10 km
Cloud details: Partly cloudy 1006 m
Mostly cloudy 1189 m
2019/12/09 07:20 EGLL 090720Z AUTO 31014KT 9999 SCT033 BKN039 09/04 Q1001 NOSIG
 
EGUB - RAF Benson, United Kingdom
Distance from station: N 58mi, 93km
Updated: 09-Dec-2019 06:50:00
Partly cloudy
Partly cloudy
 Wind from NW
Wind: NW 17 mph , 28 km/h, Gust: 29 mph , 46 km/h
Temperature: 9°C
Wind Chill: 6°C
Dew Point: 4°C
Humidity: 71%
Barometer: 1001 hPa
Clouds: Partly cloudy
Visibility: 6 miles , 10 km
Cloud details: Partly cloudy 945 m
Partly cloudy 1158 m
2019/12/09 06:50 EGUB 090650Z 32015G25KT 9999 SCT031 SCT038 09/04 Q1001 RMK BLU
EGWU - RAF Northolt, United Kingdom
Distance from station: NNE 62mi, 99km
Updated: 09-Dec-2019 07:23:00
Few Clouds
Few Clouds
 Wind from NNW
Wind: NNW 21 mph , 33 km/h
Temperature: 8°C
Wind Chill: 3°C
Dew Point: 4°C
Humidity: 76%
Barometer: 1001 hPa
Clouds: Few Clouds
Visibility: 6 miles , 10 km
Cloud details: Few Clouds 671 m
2019/12/09 07:23 EGWU 090723Z 33018KT 9999 FEW022 08/04 Q1001 TEMPO SCT022
EGKB - Biggin Hill Airport, United Kingdom
Distance from station: NE 62mi, 100km
Updated: 09-Dec-2019 07:20:00
Mostly cloudy
Mostly cloudy
 Wind from NW
Wind: NW 20 mph , 31 km/h, Gust: 36 mph , 57 km/h
Temperature: 7°C
Wind Chill: 3°C
Dew Point: 4°C
Humidity: 81%
Barometer: 1000 hPa
Clouds: Mostly cloudy
Visibility: 6 miles , 10 km
Cloud details: Mostly cloudy 732 m
2019/12/09 07:20 EGKB 090720Z 31017G31KT 9999 BKN024 07/04 Q1000
 
EGDY - RNAS Yeovilton, United Kingdom
Distance from station: WNW 66mi, 107km
Updated: 09-Dec-2019 06:50:00
Few Clouds
Few Clouds
 Wind from WNW
Wind: WNW 21 mph , 33 km/h
Temperature: 9°C
Wind Chill: 5°C
Dew Point: 4°C
Humidity: 71%
Barometer: 1006 hPa
Clouds: Few Clouds
Visibility: 6 miles , 10 km
Cloud details: Few Clouds 762 m
2019/12/09 06:50 EGDY 090650Z 30018KT 9999 FEW025 09/04 Q1006 NOSIG RMK BLU
EGUO - Colerne Airfield, United Kingdom
Distance from station: NW 67mi, 108km
Updated: 14-Feb-2019 22:50:00
NOT Current
Clear
Clear
 Wind from ENE
Wind: ENE 1 mph , 2 km/h
Temperature: 1°C
Dew Point: 0°C
Humidity: 93%
Barometer: 1029 hPa
Summary: Clear
Visibility: greater than 7 miles , 10 km
2019/02/14 22:50 EGUO 142250Z 06001KT CAVOK 01/00 Q1029 BLU NOSIG
EGVA - RAF Fairford, United Kingdom
Distance from station: NNW 67mi, 108km
Updated: 09-Dec-2019 06:56:00
Clear
Clear
 Wind from NW
Wind: NW 17 mph , 28 km/h, Gust: 28 mph , 44 km/h
Temperature: 8°C
Wind Chill: 4°C
Dew Point: 4°C
Humidity: 76%
Barometer: 1002.7 hPa
Clouds: Clear
Visibility: 6 miles , 10 km
2019/12/09 06:56 EGVA 090656Z AUTO 31015G24KT 9999 CLR 08/04 A2961 RMK AO2 PK WND 33031/29 DZE0558 PRESRR SLP032 P0000 T00780042
 
EGVN - RAF Brize Norton, United Kingdom
Distance from station: NNW 71mi, 114km
Updated: 09-Dec-2019 06:50:00
Partly cloudy
Partly cloudy
 Wind from NW
Wind: NW 16 mph , 26 km/h
Temperature: 8°C
Wind Chill: 4°C
Dew Point: 3°C
Humidity: 71%
Barometer: 1001 hPa
Clouds: Partly cloudy
Visibility: 6 miles , 10 km
Cloud details: Partly cloudy 1006 m
2019/12/09 06:50 EGVN 090650Z 31014KT 9999 SCT033 08/03 Q1001 NOSIG RMK BLU BLU
EGLC - London City Airport, United Kingdom
Distance from station: NE 71mi, 115km
Updated: 09-Dec-2019 07:20:00
Mostly cloudy
Mostly cloudy
 Wind from WNW
Wind: WNW 16 mph , 26 km/h
Temperature: 9°C
Wind Chill: 6°C
Dew Point: 5°C
Humidity: 76%
Barometer: 1000 hPa
Clouds: Mostly cloudy
Visibility: 6 miles , 10 km
Cloud details: Mostly cloudy 732 m
2019/12/09 07:20 EGLC 090720Z AUTO 30014KT 9999 BKN024 09/05 Q1000
EGGD - Bristol Airport, United Kingdom
Distance from station: WNW 80mi, 128km
Updated: 09-Dec-2019 07:20:00
Few Clouds
Few Clouds
 Wind from WNW
Wind: WNW 17 mph , 28 km/h
Temperature: 7°C
Wind Chill: 3°C
Dew Point: 3°C
Humidity: 76%
Barometer: 1006 hPa
Clouds: Few Clouds
Visibility: 6 miles , 10 km
Cloud details: Few Clouds 1006 m
2019/12/09 07:20 EGGD 090720Z 30015KT 9999 FEW033 07/03 Q1006
 
LFRC - Cherbourg-Maupertus Airport, France
Distance from station: S 81mi, 130km
Updated: 09-Dec-2019 07:30:00
Overcast
Overcast
 Wind from NW
Wind: NW 28 mph , 44 km/h, Gust: 48 mph , 78 km/h
Temperature: 10°C
Wind Chill: 6°C
Dew Point: 5°C
Humidity: 71%
Barometer: 1007 hPa
Clouds: Overcast
Visibility: 6 miles , 10 km
Cloud details: Mostly cloudy 823 m
Mostly cloudy 1036 m
Overcast 1372 m
2019/12/09 07:30 LFRC 090730Z AUTO 31024G42KT 9999 BKN027 BKN034 OVC045 10/05 Q1007 TEMPO 30030G55KT 4000 SHRA BKN015TCU
EGGW - Luton Airport, United Kingdom
Distance from station: NNE 82mi, 132km
Updated: 09-Dec-2019 07:20:00
Mostly cloudy
Mostly cloudy
 Wind from NW
Wind: NW 21 mph , 33 km/h
Temperature: 6°C
Wind Chill: 1°C
Dew Point: 4°C
Humidity: 87%
Barometer: 1000 hPa
Clouds: Mostly cloudy
Visibility: 6 miles , 10 km
Cloud details: Partly cloudy 610 m
Mostly cloudy 732 m
Mostly cloudy 1006 m
2019/12/09 07:20 EGGW 090720Z AUTO 31018KT 9999 SCT020 BKN024 BKN033 06/04 Q1000